Time;durP1;ratioP1;P1;durP2;ratioP2;P2;SDS_P1;SDS_P2;PMS_P1;PMS_P2;Temp;Humidity;BMP_temperature;BMP_pressure;BME280_temperature;BME280_humidity;BME280_pressure;Samples;Min_cycle;Max_cycle;Signal;HPM_P1;HPM_P2
2023/08/31 00:01:00;;;;;;;;;;;;;;;7.77;62.59;94834.75;4964174;28;19980;-80
2023/08/31 00:03:25;;;;;;;;;;;;;;;7.94;61.88;94831.94;4967423;28;19975;-79
2023/08/31 00:05:51;;;;;;;;;;;;;;;7.62;62.58;94833.88;4972542;28;19968;-79
2023/08/31 00:08:17;;;;;;;;;;;;;;;7.87;62.39;94836.31;4968797;28;20065;-80
2023/08/31 00:10:42;;;;;;;;;;;;;;;7.84;61.90;94839.31;4970219;28;19955;-79
2023/08/31 00:13:08;;;;;;;;;;;;;;;8.09;60.82;94842.56;4969180;28;20037;-79
2023/08/31 00:15:35;;;;;;;;;;;;;;;7.69;62.04;94840.09;4970032;28;19978;-80
2023/08/31 00:18:00;;;;;;;;;;;;;;;7.65;61.94;94849.41;4970912;28;20024;-79
2023/08/31 00:20:26;;;;;;;;;;;;;;;7.68;61.86;94848.22;4968056;28;20539;-79
2023/08/31 00:22:51;;;;;;;;;;;;;;;7.60;61.96;94854.41;4969686;28;19973;-79
2023/08/31 00:25:17;;;;;;;;;;;;;;;7.74;61.97;94848.31;4974326;28;19977;-80
2023/08/31 00:27:42;;;;;;;;;;;;;;;7.86;60.92;94847.94;4972550;28;19996;-79
2023/08/31 00:30:08;;;;;;;;;;;;;;;8.31;59.50;94845.31;4975454;28;20001;-80
2023/08/31 00:32:34;;;;;;;;;;;;;;;8.29;58.96;94839.38;4977699;28;20308;-79
2023/08/31 00:34:59;;;;;;;;;;;;;;;8.56;58.57;94840.56;4975772;28;20086;-80
2023/08/31 00:37:25;;;;;;;;;;;;;;;8.71;58.64;94839.72;4976250;28;20309;-80
2023/08/31 00:39:52;;;;;;;;;;;;;;;8.94;57.69;94839.56;4976763;28;20012;-80
2023/08/31 00:42:18;;;;;;;;;;;;;;;9.03;57.82;94840.31;4978754;28;19951;-80
2023/08/31 00:44:43;;;;;;;;;;;;;;;9.19;57.95;94839.25;4978595;28;19958;-80
2023/08/31 00:47:08;;;;;;;;;;;;;;;9.29;56.87;94849.56;4973506;28;19972;-79
2023/08/31 00:49:35;;;;;;;;;;;;;;;9.45;56.65;94845.03;4975704;28;19969;-80
2023/08/31 00:52:00;;;;;;;;;;;;;;;9.56;55.31;94849.84;4974365;28;19930;-80
2023/08/31 00:54:26;;;;;;;;;;;;;;;9.61;55.80;94853.75;4975236;28;20357;-79
2023/08/31 00:56:56;;;;;;;;;;;;;;;9.59;56.01;94856.63;4975174;28;20058;-79
2023/08/31 00:59:21;;;;;;;;;;;;;;;9.73;55.70;94849.59;4975900;28;19953;-79
2023/08/31 01:01:49;;;;;;;;;;;;;;;9.77;55.84;94850.00;4963208;28;20402;-78
2023/08/31 01:04:23;;;;;;;;;;;;;;;9.81;55.38;94852.09;4941248;28;20483;-79
2023/08/31 01:06:57;;;;;;;;;;;;;;;9.94;55.32;94850.56;4953017;28;20232;-78
2023/08/31 01:09:26;;;;;;;;;;;;;;;10.05;55.07;94850.06;4954038;28;20021;-79
2023/08/31 01:11:56;;;;;;;;;;;;;;;10.07;55.21;94848.03;4953517;28;20387;-79
2023/08/31 01:14:23;;;;;;;;;;;;;;;9.91;55.61;94856.25;4964889;28;20442;-79
2023/08/31 01:16:49;;;;;;;;;;;;;;;10.08;55.15;94846.19;4953461;28;20581;-79
2023/08/31 01:19:17;;;;;;;;;;;;;;;10.19;55.07;94852.81;4954663;28;19957;-78
2023/08/31 01:21:42;;;;;;;;;;;;;;;9.92;55.74;94849.91;4969699;28;20047;-79
2023/08/31 01:24:08;;;;;;;;;;;;;;;9.41;57.03;94851.72;4957091;28;20137;-79
2023/08/31 01:26:33;;;;;;;;;;;;;;;9.57;57.50;94846.19;4970369;28;19979;-79
2023/08/31 01:28:59;;;;;;;;;;;;;;;8.97;59.25;94840.25;4955173;28;20111;-79
2023/08/31 01:31:24;;;;;;;;;;;;;;;9.78;56.92;94838.34;4969140;28;19961;-79
2023/08/31 01:33:50;;;;;;;;;;;;;;;9.21;58.11;94847.03;4954968;28;20047;-79
2023/08/31 01:36:21;;;;;;;;;;;;;;;9.82;56.70;94847.59;4955422;28;19970;-79
2023/08/31 01:38:48;;;;;;;;;;;;;;;9.67;56.77;94842.38;4954576;28;19953;-79
2023/08/31 01:41:13;;;;;;;;;;;;;;;9.98;56.34;94849.16;4953539;28;20099;-79
2023/08/31 01:43:39;;;;;;;;;;;;;;;10.03;55.93;94845.94;4953680;28;19970;-79
2023/08/31 01:46:05;;;;;;;;;;;;;;;9.97;56.07;94850.19;4953213;28;19953;-79
2023/08/31 01:48:30;;;;;;;;;;;;;;;9.67;56.43;94855.66;4954310;28;20382;-79
2023/08/31 01:50:55;;;;;;;;;;;;;;;9.76;56.50;94856.34;4937358;28;19954;-79
2023/08/31 01:53:21;;;;;;;;;;;;;;;9.44;57.72;94867.28;4954569;28;19978;-79
2023/08/31 01:55:46;;;;;;;;;;;;;;;9.68;57.18;94862.59;4954663;28;20337;-79
2023/08/31 01:58:11;;;;;;;;;;;;;;;9.84;56.51;94858.88;4955441;28;19967;-79
2023/08/31 02:00:38;;;;;;;;;;;;;;;9.47;57.19;94861.59;4954992;28;19975;-79
2023/08/31 02:03:03;;;;;;;;;;;;;;;9.46;57.47;94852.00;4954054;28;20038;-79
2023/08/31 02:05:28;;;;;;;;;;;;;;;9.58;56.80;94854.97;4954596;28;20062;-79
2023/08/31 02:07:54;;;;;;;;;;;;;;;9.50;56.83;94853.25;4954683;28;19975;-80
2023/08/31 02:10:19;;;;;;;;;;;;;;;9.52;57.03;94842.44;4955223;28;20117;-79
2023/08/31 02:12:44;;;;;;;;;;;;;;;9.58;56.53;94842.50;4958550;28;20022;-79
2023/08/31 02:15:09;;;;;;;;;;;;;;;9.66;56.11;94852.16;4960641;28;20035;-79
2023/08/31 02:17:35;;;;;;;;;;;;;;;9.72;55.92;94853.25;4952365;28;20718;-79
2023/08/31 02:20:01;;;;;;;;;;;;;;;9.53;56.52;94858.22;4958003;28;20213;-78
2023/08/31 02:22:26;;;;;;;;;;;;;;;9.43;56.70;94853.22;4960299;28;19950;-79
2023/08/31 02:24:52;;;;;;;;;;;;;;;9.54;56.71;94862.50;4958555;28;20051;-78
2023/08/31 02:27:17;;;;;;;;;;;;;;;9.40;56.92;94860.72;4958336;28;20070;-78
2023/08/31 02:29:42;;;;;;;;;;;;;;;9.44;56.74;94861.97;4958242;28;20090;-77
2023/08/31 02:32:08;;;;;;;;;;;;;;;9.30;57.23;94867.19;4958142;28;19933;-79
2023/08/31 02:34:33;;;;;;;;;;;;;;;9.38;57.41;94868.06;4958356;28;19922;-79
2023/08/31 02:36:58;;;;;;;;;;;;;;;9.39;57.27;94861.75;4960261;28;19968;-78
2023/08/31 02:39:23;;;;;;;;;;;;;;;9.35;57.58;94863.13;4958670;28;19933;-78
2023/08/31 02:41:49;;;;;;;;;;;;;;;9.04;57.81;94859.72;4960151;28;20643;-79
2023/08/31 02:44:14;;;;;;;;;;;;;;;9.29;57.51;94870.00;4959456;28;20200;-78
2023/08/31 02:46:39;;;;;;;;;;;;;;;9.57;56.66;94867.44;4960023;28;19943;-78
2023/08/31 02:49:04;;;;;;;;;;;;;;;9.30;56.87;94872.47;4959106;28;20051;-78
2023/08/31 02:51:30;;;;;;;;;;;;;;;9.67;56.26;94872.44;4957784;28;20149;-78
2023/08/31 02:53:55;;;;;;;;;;;;;;;8.73;58.95;94872.19;4957933;28;20417;-79
2023/08/31 02:56:20;;;;;;;;;;;;;;;9.24;57.41;94869.75;4959571;28;20357;-78
2023/08/31 02:58:45;;;;;;;;;;;;;;;9.77;56.07;94871.28;4959123;28;20036;-79
2023/08/31 03:01:11;;;;;;;;;;;;;;;9.88;55.90;94873.44;4958600;28;19977;-78
2023/08/31 03:03:37;;;;;;;;;;;;;;;9.36;57.09;94870.91;4960717;28;20015;-78
2023/08/31 03:06:02;;;;;;;;;;;;;;;9.25;56.68;94872.22;4945249;28;19946;-78
2023/08/31 03:08:27;;;;;;;;;;;;;;;8.93;57.91;94877.75;4956724;28;19984;-79
2023/08/31 03:10:53;;;;;;;;;;;;;;;8.50;59.65;94867.81;4959164;28;19961;-77
2023/08/31 03:13:18;;;;;;;;;;;;;;;8.14;61.67;94874.66;4973408;28;19980;-79
2023/08/31 03:15:43;;;;;;;;;;;;;;;8.60;59.86;94872.84;4957153;28;19977;-78
2023/08/31 03:18:08;;;;;;;;;;;;;;;8.92;58.62;94869.97;4958888;28;20475;-78
2023/08/31 03:20:34;;;;;;;;;;;;;;;9.13;58.35;94863.91;4958551;28;20551;-78
2023/08/31 03:22:59;;;;;;;;;;;;;;;8.81;59.22;94863.31;4956337;28;20019;-79
2023/08/31 03:25:24;;;;;;;;;;;;;;;8.49;59.49;94868.00;4958631;28;19971;-78
2023/08/31 03:27:49;;;;;;;;;;;;;;;9.10;57.92;94866.94;4958054;28;20011;-78
2023/08/31 03:30:15;;;;;;;;;;;;;;;9.04;58.60;94868.50;4959396;28;20017;-79
2023/08/31 03:32:40;;;;;;;;;;;;;;;9.14;58.35;94875.34;4958691;28;19978;-78
2023/08/31 03:35:07;;;;;;;;;;;;;;;9.20;57.95;94871.97;4959566;28;20016;-78
2023/08/31 03:37:33;;;;;;;;;;;;;;;9.28;57.41;94868.38;4958536;28;20105;-78
2023/08/31 03:39:58;;;;;;;;;;;;;;;8.92;58.37;94867.31;4955721;28;19969;-79
2023/08/31 03:42:24;;;;;;;;;;;;;;;9.20;57.56;94877.28;4958207;28;20534;-78
2023/08/31 03:44:49;;;;;;;;;;;;;;;9.20;57.41;94877.28;4957144;28;19975;-78
2023/08/31 03:47:14;;;;;;;;;;;;;;;9.25;57.09;94880.19;4956220;28;20098;-78
2023/08/31 03:49:39;;;;;;;;;;;;;;;9.13;57.77;94876.38;4957032;28;19951;-79
2023/08/31 03:52:05;;;;;;;;;;;;;;;9.29;57.13;94880.63;4956043;28;19994;-79
2023/08/31 03:54:30;;;;;;;;;;;;;;;9.45;56.67;94887.53;4959385;28;19966;-79
2023/08/31 03:56:55;;;;;;;;;;;;;;;9.47;56.88;94888.19;4957843;28;21349;-79
2023/08/31 03:59:20;;;;;;;;;;;;;;;9.67;56.23;94890.22;4957686;28;19980;-79
2023/08/31 04:01:46;;;;;;;;;;;;;;;9.48;56.54;94884.50;4957582;28;20021;-79
2023/08/31 04:04:11;;;;;;;;;;;;;;;9.44;56.94;94893.88;4956980;28;20022;-78
2023/08/31 04:06:37;;;;;;;;;;;;;;;9.26;57.27;94892.47;4956271;28;19953;-78
2023/08/31 04:09:02;;;;;;;;;;;;;;;9.45;56.96;94896.34;4957246;28;20340;-79
2023/08/31 04:11:28;;;;;;;;;;;;;;;9.48;56.37;94900.44;4957883;28;19997;-78
2023/08/31 04:13:53;;;;;;;;;;;;;;;9.34;56.64;94902.13;4958384;28;20056;-78
2023/08/31 04:16:18;;;;;;;;;;;;;;;9.01;57.70;94900.75;4958188;28;20053;-78
2023/08/31 04:18:47;;;;;;;;;;;;;;;9.38;57.22;94894.63;4956279;28;19995;-78
2023/08/31 04:21:13;;;;;;;;;;;;;;;9.56;56.63;94904.84;4956638;28;19968;-79
2023/08/31 04:23:38;;;;;;;;;;;;;;;9.58;56.65;94914.25;4956897;28;20258;-77
2023/08/31 04:26:12;;;;;;;;;;;;;;;9.36;57.51;94908.09;4956179;28;20367;-79
2023/08/31 04:28:39;;;;;;;;;;;;;;;9.18;58.23;94897.91;4951852;28;20516;-78
2023/08/31 04:31:04;;;;;;;;;;;;;;;9.33;57.04;94904.00;4957460;28;19942;-78
2023/08/31 04:33:30;;;;;;;;;;;;;;;8.90;58.92;94915.28;4959204;28;19973;-80
2023/08/31 04:35:55;;;;;;;;;;;;;;;8.67;59.52;94915.41;4970136;28;20018;-79
2023/08/31 04:38:20;;;;;;;;;;;;;;;8.82;59.62;94918.88;4971042;28;19960;-80
2023/08/31 04:40:45;;;;;;;;;;;;;;;8.77;59.64;94925.75;4971575;28;20025;-79
2023/08/31 04:43:10;;;;;;;;;;;;;;;8.50;60.74;94926.19;4972393;28;20028;-79
2023/08/31 04:45:36;;;;;;;;;;;;;;;8.29;61.19;94926.88;4972844;28;19997;-79
2023/08/31 04:48:01;;;;;;;;;;;;;;;8.67;60.13;94926.81;4970374;28;20265;-80
2023/08/31 04:50:26;;;;;;;;;;;;;;;8.67;58.91;94928.69;4969368;28;20029;-80
2023/08/31 04:52:51;;;;;;;;;;;;;;;8.78;59.29;94928.19;4967081;28;20073;-79
2023/08/31 04:55:17;;;;;;;;;;;;;;;9.06;58.50;94927.59;4951169;28;19953;-80
2023/08/31 04:57:42;;;;;;;;;;;;;;;8.75;58.30;94925.09;4969757;28;20014;-80
2023/08/31 05:00:11;;;;;;;;;;;;;;;8.50;60.22;94928.81;4982822;28;20067;-79
2023/08/31 05:02:37;;;;;;;;;;;;;;;8.99;58.71;94931.16;4970382;28;19964;-79
2023/08/31 05:05:03;;;;;;;;;;;;;;;9.02;58.22;94944.06;4968918;28;19975;-80
2023/08/31 05:07:28;;;;;;;;;;;;;;;8.98;58.58;94938.31;4963894;28;19970;-80
2023/08/31 05:09:53;;;;;;;;;;;;;;;9.39;57.25;94946.75;4964489;28;20398;-79
2023/08/31 05:12:18;;;;;;;;;;;;;;;9.00;57.86;94941.59;4966113;28;20134;-79
2023/08/31 05:14:43;;;;;;;;;;;;;;;9.15;57.77;94941.56;4970031;28;20129;-80
2023/08/31 05:17:09;;;;;;;;;;;;;;;9.45;57.38;94953.94;4964712;28;20478;-80
2023/08/31 05:19:34;;;;;;;;;;;;;;;9.39;56.91;94952.06;4965898;28;20508;-79
2023/08/31 05:21:59;;;;;;;;;;;;;;;9.42;56.52;94955.16;4963347;28;19955;-80
2023/08/31 05:24:24;;;;;;;;;;;;;;;9.25;56.63;94957.19;4959846;28;20058;-80
2023/08/31 05:26:50;;;;;;;;;;;;;;;9.64;56.04;94957.03;4964103;28;20357;-80
2023/08/31 05:29:15;;;;;;;;;;;;;;;9.44;56.95;94960.28;4966731;28;20173;-80
2023/08/31 05:31:40;;;;;;;;;;;;;;;9.27;57.64;94968.47;4979625;28;19971;-80
2023/08/31 05:34:05;;;;;;;;;;;;;;;9.40;57.19;94967.81;4965213;28;19965;-80
2023/08/31 05:36:31;;;;;;;;;;;;;;;9.57;56.85;94968.44;4963076;28;20065;-79
2023/08/31 05:38:56;;;;;;;;;;;;;;;9.19;57.75;94971.25;4963382;28;19944;-80
2023/08/31 05:41:21;;;;;;;;;;;;;;;9.19;57.48;94973.91;4963381;28;19971;-80
2023/08/31 05:43:46;;;;;;;;;;;;;;;9.22;56.77;94970.03;4965064;28;20175;-75
2023/08/31 05:46:12;;;;;;;;;;;;;;;8.66;58.43;94974.78;4957772;28;20036;-77
2023/08/31 05:48:37;;;;;;;;;;;;;;;9.25;57.07;94980.31;4956057;28;20330;-75
2023/08/31 05:51:03;;;;;;;;;;;;;;;9.10;57.26;94988.25;4959339;28;19948;-76
2023/08/31 05:53:29;;;;;;;;;;;;;;;9.10;58.00;94985.59;4955524;28;20083;-77
2023/08/31 05:55:54;;;;;;;;;;;;;;;8.85;58.37;94986.69;4958615;28;20261;-76
2023/08/31 05:58:20;;;;;;;;;;;;;;;8.52;58.60;94985.19;4957108;28;20280;-77
2023/08/31 06:00:45;;;;;;;;;;;;;;;9.06;57.72;94986.00;4956168;28;19987;-77
2023/08/31 06:03:10;;;;;;;;;;;;;;;8.59;59.33;94992.41;4959105;28;19943;-76
2023/08/31 06:05:36;;;;;;;;;;;;;;;9.13;57.45;94986.06;4957938;28;19957;-75
2023/08/31 06:08:01;;;;;;;;;;;;;;;9.34;57.11;94987.16;4958164;28;19975;-77
2023/08/31 06:10:26;;;;;;;;;;;;;;;9.56;56.31;94993.31;4958707;28;19949;-76
2023/08/31 06:12:51;;;;;;;;;;;;;;;9.33;56.87;94991.66;4958583;28;20545;-78
2023/08/31 06:15:17;;;;;;;;;;;;;;;9.16;57.09;94992.84;4956356;28;20395;-77
2023/08/31 06:17:42;;;;;;;;;;;;;;;9.42;56.19;95004.84;4959279;28;20477;-76
2023/08/31 06:20:08;;;;;;;;;;;;;;;9.58;56.48;95003.78;4958390;28;20444;-77
2023/08/31 06:22:33;;;;;;;;;;;;;;;9.53;56.14;95007.00;4960699;28;20359;-77
2023/08/31 06:24:58;;;;;;;;;;;;;;;9.36;56.58;95016.19;4956794;28;20393;-76
2023/08/31 06:27:24;;;;;;;;;;;;;;;9.33;56.99;95009.41;4957740;28;20159;-76
2023/08/31 06:29:49;;;;;;;;;;;;;;;8.61;58.78;95011.66;4959331;28;19949;-76
2023/08/31 06:32:15;;;;;;;;;;;;;;;8.54;57.98;95008.91;4958446;28;19975;-77
2023/08/31 06:34:41;;;;;;;;;;;;;;;8.91;58.13;95011.69;4958596;28;20366;-78
2023/08/31 06:37:06;;;;;;;;;;;;;;;8.53;58.90;95028.44;4958322;28;19970;-76
2023/08/31 06:39:32;;;;;;;;;;;;;;;8.69;58.79;95025.66;4955795;28;20002;-76
2023/08/31 06:41:58;;;;;;;;;;;;;;;9.13;57.12;95014.47;4958065;28;20335;-77
2023/08/31 06:44:23;;;;;;;;;;;;;;;8.56;58.00;95020.97;4958022;28;19967;-75
2023/08/31 06:46:48;;;;;;;;;;;;;;;8.62;59.11;95026.56;4950147;28;20428;-66
2023/08/31 06:49:14;;;;;;;;;;;;;;;9.07;57.50;95021.31;4951392;28;20107;-67
2023/08/31 06:51:39;;;;;;;;;;;;;;;8.83;58.43;95028.50;4949531;28;20013;-67
2023/08/31 06:54:06;;;;;;;;;;;;;;;9.21;57.68;95032.94;4948986;28;20073;-68
2023/08/31 06:56:34;;;;;;;;;;;;;;;8.27;60.13;95033.13;4955451;28;20058;-69
2023/08/31 06:58:59;;;;;;;;;;;;;;;8.79;58.92;95029.88;4954950;28;20045;-69
2023/08/31 07:01:24;;;;;;;;;;;;;;;8.67;58.80;95040.94;4956137;28;20385;-70
2023/08/31 07:03:51;;;;;;;;;;;;;;;8.64;58.84;95037.84;4955116;28;20337;-68
2023/08/31 07:06:16;;;;;;;;;;;;;;;8.25;60.66;95040.47;4955317;28;20050;-68
2023/08/31 07:08:45;;;;;;;;;;;;;;;7.80;61.72;95042.91;4948085;28;20003;-70
2023/08/31 07:11:10;;;;;;;;;;;;;;;7.33;63.64;95050.72;4955728;28;20015;-68
2023/08/31 07:13:35;;;;;;;;;;;;;;;7.87;62.67;95045.69;4952339;28;20629;-69
2023/08/31 07:16:00;;;;;;;;;;;;;;;7.96;62.40;95046.47;4950044;28;20078;-69
2023/08/31 07:18:26;;;;;;;;;;;;;;;7.60;60.83;95055.72;4947150;28;20045;-69
2023/08/31 07:20:51;;;;;;;;;;;;;;;8.27;60.83;95043.75;4946936;28;20103;-70
2023/08/31 07:23:16;;;;;;;;;;;;;;;8.43;60.86;95053.41;4948305;28;19961;-69
2023/08/31 07:25:42;;;;;;;;;;;;;;;8.67;59.65;95048.91;4946685;28;19958;-68
2023/08/31 07:28:07;;;;;;;;;;;;;;;8.43;59.58;95049.94;4946214;28;20424;-69
2023/08/31 07:30:33;;;;;;;;;;;;;;;8.35;60.15;95055.31;4948945;28;20391;-69
2023/08/31 07:32:59;;;;;;;;;;;;;;;7.79;62.11;95052.69;4946956;28;20099;-69
2023/08/31 07:35:25;;;;;;;;;;;;;;;8.27;61.98;95054.34;4946041;28;20343;-71
2023/08/31 07:37:50;;;;;;;;;;;;;;;8.48;60.18;95058.19;4946816;28;19955;-70
2023/08/31 07:40:15;;;;;;;;;;;;;;;8.64;59.88;95064.38;4945559;28;19973;-70
2023/08/31 07:42:40;;;;;;;;;;;;;;;8.79;59.54;95054.59;4948501;28;19953;-69
2023/08/31 07:45:06;;;;;;;;;;;;;;;8.00;62.05;95058.38;4948328;28;19973;-70
2023/08/31 07:47:31;;;;;;;;;;;;;;;8.77;58.34;95063.75;4945270;28;20449;-69
2023/08/31 07:49:56;;;;;;;;;;;;;;;8.77;57.71;95063.75;4945050;28;20324;-69
2023/08/31 07:52:22;;;;;;;;;;;;;;;9.92;55.93;95065.28;4946005;28;20079;-70
2023/08/31 07:54:47;;;;;;;;;;;;;;;10.52;54.58;95074.94;4946389;28;19972;-69
2023/08/31 07:57:12;;;;;;;;;;;;;;;9.94;54.17;95074.75;4945032;28;19964;-69
2023/08/31 07:59:40;;;;;;;;;;;;;;;10.88;52.58;95084.63;4944170;28;20017;-69
2023/08/31 08:02:05;;;;;;;;;;;;;;;10.36;54.16;95077.66;4945577;28;20629;-69
2023/08/31 08:04:31;;;;;;;;;;;;;;;10.67;54.03;95081.00;4940148;28;19967;-67
2023/08/31 08:06:56;;;;;;;;;;;;;;;10.88;53.88;95080.16;4944674;28;19989;-67
2023/08/31 08:09:21;;;;;;;;;;;;;;;10.45;54.66;95078.38;4944673;28;20529;-67
2023/08/31 08:11:46;;;;;;;;;;;;;;;10.61;53.98;95079.94;4945426;28;20052;-67
2023/08/31 08:14:12;;;;;;;;;;;;;;;10.61;53.06;95087.91;4945754;28;20104;-66
2023/08/31 08:16:37;;;;;;;;;;;;;;;10.77;53.01;95093.97;4945800;28;20471;-66
2023/08/31 08:19:02;;;;;;;;;;;;;;;10.49;54.27;95087.63;4947348;28;19985;-67
2023/08/31 08:21:27;;;;;;;;;;;;;;;10.48;54.72;95093.13;4951971;28;20032;-68
2023/08/31 08:23:53;;;;;;;;;;;;;;;10.94;53.07;95104.34;4945123;28;20065;-66
2023/08/31 08:26:18;;;;;;;;;;;;;;;10.84;52.01;95102.03;4945164;28;20310;-67
2023/08/31 08:28:43;;;;;;;;;;;;;;;10.36;54.12;95108.75;4950719;28;20156;-68
2023/08/31 08:31:08;;;;;;;;;;;;;;;9.98;53.97;95104.44;4947753;28;20071;-66
2023/08/31 08:33:34;;;;;;;;;;;;;;;9.74;56.68;95111.72;4950040;28;20066;-77
2023/08/31 08:35:59;;;;;;;;;;;;;;;10.22;54.23;95113.13;4957273;28;20084;-76
2023/08/31 08:38:27;;;;;;;;;;;;;;;10.56;53.21;95119.63;4957385;28;20398;-75
2023/08/31 08:40:52;;;;;;;;;;;;;;;10.75;52.45;95114.66;4955342;28;20053;-75
2023/08/31 08:43:19;;;;;;;;;;;;;;;10.85;52.43;95117.00;4954603;28;20020;-76
2023/08/31 08:45:46;;;;;;;;;;;;;;;11.80;51.60;95115.78;4954538;28;20671;-76
2023/08/31 08:48:12;;;;;;;;;;;;;;;11.92;49.66;95125.88;4948955;28;20498;-76
2023/08/31 08:50:37;;;;;;;;;;;;;;;12.15;48.69;95121.09;4936934;28;20413;-75
2023/08/31 08:53:02;;;;;;;;;;;;;;;12.03;49.37;95127.97;4953926;28;20326;-76
2023/08/31 08:55:28;;;;;;;;;;;;;;;10.64;52.08;95136.47;4953579;28;19944;-77
2023/08/31 08:57:53;;;;;;;;;;;;;;;12.35;48.90;95108.84;4955448;28;19962;-77
2023/08/31 09:00:18;;;;;;;;;;;;;;;11.93;47.79;95124.88;4953186;28;20437;-76
2023/08/31 09:02:45;;;;;;;;;;;;;;;12.47;47.88;95122.38;4953187;28;21346;-77
2023/08/31 09:05:10;;;;;;;;;;;;;;;12.34;46.82;95118.69;4951884;28;20337;-73
2023/08/31 09:07:38;;;;;;;;;;;;;;;11.44;48.16;95127.50;4948529;28;19977;-74
2023/08/31 09:10:03;;;;;;;;;;;;;;;10.22;52.67;95129.06;4949568;28;19938;-73
2023/08/31 09:12:29;;;;;;;;;;;;;;;11.65;50.28;95134.59;4947348;28;20684;-72
2023/08/31 09:15:00;;;;;;;;;;;;;;;11.97;48.16;95131.47;4945990;28;20075;-73
2023/08/31 09:17:26;;;;;;;;;;;;;;;11.87;47.80;95126.50;4942307;28;19962;-75
2023/08/31 09:20:00;;;;;;;;;;;;;;;11.92;49.24;95136.56;4943631;28;19963;-74
2023/08/31 09:22:26;;;;;;;;;;;;;;;11.78;48.72;95141.84;4946154;28;19965;-74
2023/08/31 09:24:51;;;;;;;;;;;;;;;11.95;47.65;95138.81;4943895;28;20809;-74
2023/08/31 09:27:16;;;;;;;;;;;;;;;11.72;48.51;95146.13;4948048;28;20301;-74
2023/08/31 09:29:44;;;;;;;;;;;;;;;12.24;48.13;95139.59;4947611;28;19980;-74
2023/08/31 09:32:10;;;;;;;;;;;;;;;12.13;47.48;95149.00;4944214;28;19967;-74
2023/08/31 09:34:35;;;;;;;;;;;;;;;12.42;49.39;95123.81;4944418;28;19958;-73
2023/08/31 09:37:04;;;;;;;;;;;;;;;12.84;45.61;95148.75;4942718;28;19966;-74
2023/08/31 09:39:35;;;;;;;;;;;;;;;12.55;45.54;95130.25;4943430;28;19965;-74
2023/08/31 09:42:03;;;;;;;;;;;;;;;12.18;46.45;95135.88;4943224;28;19939;-75
2023/08/31 09:44:28;;;;;;;;;;;;;;;13.13;45.92;95126.19;4944945;28;19999;-73
2023/08/31 09:46:53;;;;;;;;;;;;;;;13.64;43.56;95139.91;4943659;28;20048;-74
2023/08/31 09:49:19;;;;;;;;;;;;;;;12.85;44.06;95137.84;4944307;28;20000;-73
2023/08/31 09:51:45;;;;;;;;;;;;;;;12.45;46.06;95135.97;4942546;28;20175;-72
2023/08/31 09:54:12;;;;;;;;;;;;;;;12.41;45.89;95140.06;4946099;28;20019;-73
2023/08/31 09:56:37;;;;;;;;;;;;;;;12.42;45.83;95145.19;4944157;28;19961;-74
2023/08/31 09:59:03;;;;;;;;;;;;;;;12.75;45.17;95150.81;4946089;28;19959;-73
2023/08/31 10:01:28;;;;;;;;;;;;;;;13.12;45.36;95135.22;4942973;28;20254;-73
2023/08/31 10:03:53;;;;;;;;;;;;;;;12.31;46.60;95144.97;4943279;28;20066;-74
2023/08/31 10:06:18;;;;;;;;;;;;;;;12.99;45.47;95132.53;4943433;28;19947;-75
2023/08/31 10:08:44;;;;;;;;;;;;;;;12.58;46.68;95145.03;4943294;28;19937;-73
2023/08/31 10:11:12;;;;;;;;;;;;;;;13.56;44.28;95145.47;4943317;28;20057;-74
2023/08/31 10:13:40;;;;;;;;;;;;;;;12.96;45.46;95139.13;4942373;28;20084;-74
2023/08/31 10:16:05;;;;;;;;;;;;;;;12.96;45.19;95146.31;4942636;28;19971;-74
2023/08/31 10:18:30;;;;;;;;;;;;;;;12.56;45.35;95142.56;4943241;28;19938;-74
2023/08/31 10:20:56;;;;;;;;;;;;;;;12.37;46.05;95144.13;4943096;28;19930;-73
2023/08/31 10:23:21;;;;;;;;;;;;;;;10.94;49.79;95154.94;4943971;28;20345;-75
2023/08/31 10:25:49;;;;;;;;;;;;;;;12.62;46.75;95155.09;4945550;28;19967;-73
2023/08/31 10:28:18;;;;;;;;;;;;;;;12.40;46.70;95160.59;4942991;28;20509;-72
2023/08/31 10:30:43;;;;;;;;;;;;;;;12.01;47.41;95162.88;4946530;28;19951;-73
2023/08/31 10:33:08;;;;;;;;;;;;;;;11.68;48.93;95166.19;4945160;28;20417;-72
2023/08/31 10:36:00;;;;;;;;;;;;;;;12.52;47.56;95157.34;4946746;28;20100;-73
2023/08/31 10:38:30;;;;;;;;;;;;;;;13.11;45.97;95154.13;4944157;28;20429;-72
2023/08/31 10:41:03;;;;;;;;;;;;;;;12.75;45.11;95153.47;4946738;28;19954;-72
2023/08/31 10:43:42;;;;;;;;;;;;;;;12.98;45.83;95160.28;4946590;28;20404;-73
2023/08/31 10:46:28;;;;;;;;;;;;;;;12.71;45.14;95152.25;4930469;28;20374;-72
2023/08/31 10:49:14;;;;;;;;;;;;;;;13.28;44.71;95154.56;4941939;28;19933;-73
2023/08/31 10:51:40;;;;;;;;;;;;;;;14.03;44.22;95145.38;4946988;28;20004;-72
2023/08/31 10:54:09;;;;;;;;;;;;;;;12.40;46.90;95149.91;4948813;28;20361;-70
2023/08/31 10:56:39;;;;;;;;;;;;;;;13.02;45.59;95146.34;4946262;28;19966;-71
2023/08/31 10:59:04;;;;;;;;;;;;;;;13.77;42.82;95155.09;4948068;28;19966;-71
2023/08/31 11:01:48;;;;;;;;;;;;;;;13.01;42.67;95143.84;4945135;28;19997;-70
2023/08/31 11:04:14;;;;;;;;;;;;;;;11.99;45.70;95151.59;4946664;28;20001;-71
2023/08/31 11:06:39;;;;;;;;;;;;;;;12.33;45.01;95146.41;4950871;28;20371;-70
2023/08/31 11:09:04;;;;;;;;;;;;;;;12.69;44.75;95143.59;4952892;28;20043;-75
2023/08/31 11:11:37;;;;;;;;;;;;;;;12.60;45.08;95154.47;4973065;28;20442;-75
2023/08/31 11:14:02;;;;;;;;;;;;;;;13.08;43.63;95144.69;4958267;28;19955;-77
2023/08/31 11:16:29;;;;;;;;;;;;;;;13.18;44.42;95147.78;4954121;28;20060;-77
2023/08/31 11:18:54;;;;;;;;;;;;;;;13.33;43.68;95153.94;4954539;28;20524;-74
2023/08/31 11:21:19;;;;;;;;;;;;;;;12.78;44.97;95155.72;4954574;28;19955;-76
2023/08/31 11:23:45;;;;;;;;;;;;;;;12.56;45.29;95161.25;4956951;28;20493;-76
2023/08/31 11:26:11;;;;;;;;;;;;;;;12.00;46.18;95166.56;4950127;28;19951;-76
2023/08/31 11:28:36;;;;;;;;;;;;;;;12.05;46.71;95168.66;4954670;28;19959;-76
2023/08/31 11:31:01;;;;;;;;;;;;;;;12.43;46.67;95154.03;4956117;28;20471;-75
2023/08/31 11:33:30;;;;;;;;;;;;;;;12.58;47.52;95161.06;4957482;28;20045;-76
2023/08/31 11:35:56;;;;;;;;;;;;;;;12.69;46.26;95162.28;4956292;28;20473;-75
2023/08/31 11:38:21;;;;;;;;;;;;;;;12.79;46.61;95165.41;4957806;28;19942;-75
2023/08/31 11:40:46;;;;;;;;;;;;;;;13.64;44.66;95157.81;4952481;28;19956;-76
2023/08/31 11:43:14;;;;;;;;;;;;;;;13.86;44.61;95153.00;4955127;28;19928;-75
2023/08/31 11:45:39;;;;;;;;;;;;;;;13.98;45.16;95155.06;4956012;28;20400;-76
2023/08/31 11:48:05;;;;;;;;;;;;;;;14.25;44.61;95146.94;4955898;28;19993;-76
2023/08/31 11:50:30;;;;;;;;;;;;;;;14.43;43.98;95149.75;4950615;28;19962;-76
2023/08/31 11:52:56;;;;;;;;;;;;;;;13.49;47.70;95144.69;4957672;28;19954;-76
2023/08/31 11:55:22;;;;;;;;;;;;;;;14.45;44.62;95146.84;4957600;28;19968;-76
2023/08/31 11:57:48;;;;;;;;;;;;;;;13.03;47.06;95155.97;4957444;28;20447;-77
2023/08/31 12:00:14;;;;;;;;;;;;;;;13.59;46.33;95150.41;4951438;28;19963;-77
2023/08/31 12:02:39;;;;;;;;;;;;;;;14.25;44.72;95146.94;4959214;28;19960;-76
2023/08/31 12:05:05;;;;;;;;;;;;;;;13.76;46.63;95142.75;4954545;28;20375;-76
2023/08/31 12:07:30;;;;;;;;;;;;;;;14.10;45.46;95145.34;4946469;28;20482;-76
2023/08/31 12:10:01;;;;;;;;;;;;;;;14.04;44.94;95135.50;4957302;28;19937;-76
2023/08/31 12:12:28;;;;;;;;;;;;;;;14.37;43.47;95145.22;4949616;28;19968;-77
2023/08/31 12:14:53;;;;;;;;;;;;;;;14.29;44.57;95148.16;4957221;28;19922;-76
2023/08/31 12:17:19;;;;;;;;;;;;;;;14.35;43.58;95150.00;4955017;28;19956;-77
2023/08/31 12:19:44;;;;;;;;;;;;;;;13.54;45.04;95143.00;4954114;28;20590;-75
2023/08/31 12:22:12;;;;;;;;;;;;;;;13.68;44.30;95154.50;4957139;28;20000;-77
2023/08/31 12:24:41;;;;;;;;;;;;;;;14.65;42.55;95144.03;4952544;28;19957;-76
2023/08/31 12:27:06;;;;;;;;;;;;;;;15.41;41.21;95145.16;4956533;28;19963;-78
2023/08/31 12:29:32;;;;;;;;;;;;;;;15.71;40.61;95139.94;4944473;28;19926;-76
2023/08/31 12:31:57;;;;;;;;;;;;;;;14.36;42.27;95134.72;4954527;28;19936;-77
2023/08/31 12:34:23;;;;;;;;;;;;;;;15.71;40.66;95141.81;4956608;28;20064;-76
2023/08/31 12:36:48;;;;;;;;;;;;;;;14.86;41.82;95142.09;4955965;28;19972;-76
2023/08/31 12:39:13;;;;;;;;;;;;;;;15.55;42.13;95133.28;4955365;28;20001;-77
2023/08/31 12:41:39;;;;;;;;;;;;;;;15.84;42.65;95132.81;4954324;28;20461;-76
2023/08/31 12:44:04;;;;;;;;;;;;;;;16.18;40.88;95133.22;4956512;28;19926;-79
2023/08/31 12:46:30;;;;;;;;;;;;;;;16.08;40.84;95130.25;4963588;28;19926;-78